createdAt,value
2018-09-26T00:00:47.942Z,99.90
2018-09-26T00:04:21.224Z,99.90
2018-09-26T00:06:48.504Z,99.90
2018-09-26T00:09:15.726Z,99.90
2018-09-26T00:11:42.947Z,99.90
2018-09-26T00:14:10.151Z,99.90
2018-09-26T00:16:38.183Z,99.90
2018-09-26T00:19:05.681Z,99.90
2018-09-26T00:21:32.915Z,99.90
2018-09-26T00:24:00.124Z,99.90
2018-09-26T00:26:27.396Z,99.90
2018-09-26T00:28:54.616Z,99.90
2018-09-26T00:31:21.936Z,99.90
2018-09-26T00:33:49.154Z,99.90
2018-09-26T00:36:16.446Z,99.90
2018-09-26T00:38:43.584Z,99.90
2018-09-26T00:41:10.861Z,99.90
2018-09-26T00:43:38.152Z,99.90
2018-09-26T00:46:05.898Z,99.90
2018-09-26T00:48:33.226Z,99.90
2018-09-26T00:51:00.556Z,99.90
2018-09-26T00:53:27.896Z,99.90
2018-09-26T00:55:55.163Z,99.90
2018-09-26T00:58:23.251Z,99.90
2018-09-26T01:00:50.651Z,99.90
2018-09-26T01:03:17.962Z,99.90
2018-09-26T01:05:45.301Z,99.90
2018-09-26T01:08:12.596Z,99.90
2018-09-26T01:10:39.893Z,99.90
2018-09-26T01:13:07.208Z,99.90
2018-09-26T01:15:34.695Z,99.90
2018-09-26T01:18:01.919Z,99.90
2018-09-26T01:20:29.139Z,99.90
2018-09-26T01:22:56.345Z,99.90
2018-09-26T01:25:23.571Z,99.90
2018-09-26T01:27:50.778Z,99.90
2018-09-26T01:30:18.063Z,99.90
2018-09-26T01:32:45.266Z,99.90
2018-09-26T01:35:12.503Z,99.90
2018-09-26T01:37:39.786Z,99.90
2018-09-26T01:40:07.018Z,99.90
2018-09-26T01:42:34.289Z,99.90
2018-09-26T01:45:01.505Z,99.90
2018-09-26T01:47:28.727Z,99.90
2018-09-26T01:49:55.932Z,99.90
2018-09-26T01:52:23.141Z,99.90
2018-09-26T01:54:50.345Z,99.90
2018-09-26T01:57:17.568Z,99.90
2018-09-26T01:59:44.780Z,99.90
2018-09-26T02:02:12.007Z,99.90
2018-09-26T02:04:39.239Z,99.90
2018-09-26T02:07:06.555Z,99.90
2018-09-26T02:09:33.778Z,99.90
2018-09-26T02:12:01.124Z,99.90
2018-09-26T02:14:28.428Z,99.90
2018-09-26T02:16:55.761Z,99.90
2018-09-26T02:19:23.084Z,99.90
2018-09-26T02:21:50.396Z,99.90
2018-09-26T02:24:17.732Z,99.90
2018-09-26T02:26:45.069Z,99.90
2018-09-26T02:29:12.421Z,99.90
2018-09-26T02:31:39.754Z,99.90
2018-09-26T02:34:07.059Z,99.90
2018-09-26T02:36:34.391Z,99.90
2018-09-26T02:39:01.756Z,99.90
2018-09-26T02:41:29.004Z,99.90
2018-09-26T02:43:56.276Z,99.90
2018-09-26T02:46:23.549Z,99.90
2018-09-26T02:48:56.596Z,99.90
2018-09-26T02:51:23.868Z,99.90
2018-09-26T02:53:51.136Z,99.90
2018-09-26T02:56:18.394Z,99.90
2018-09-26T02:58:45.656Z,99.90
2018-09-26T03:01:12.911Z,99.90
2018-09-26T03:03:40.159Z,99.90
2018-09-26T03:06:07.527Z,99.90
2018-09-26T03:08:34.821Z,99.90
2018-09-26T03:11:02.138Z,99.90
2018-09-26T03:13:29.324Z,99.90
2018-09-26T03:15:56.617Z,99.90
2018-09-26T03:18:23.918Z,99.90
2018-09-26T03:20:51.178Z,99.90
2018-09-26T03:23:18.533Z,99.90
2018-09-26T03:25:45.853Z,99.90
2018-09-26T03:28:13.127Z,99.90
2018-09-26T03:30:40.434Z,99.90
2018-09-26T03:33:07.734Z,99.90
2018-09-26T03:35:35.032Z,99.90
2018-09-26T03:38:02.319Z,99.90
2018-09-26T03:40:29.684Z,99.90
2018-09-26T03:42:56.940Z,99.90
2018-09-26T03:45:24.254Z,99.90
2018-09-26T03:47:51.521Z,99.90
2018-09-26T03:50:18.856Z,99.90
2018-09-26T03:52:46.144Z,99.90
2018-09-26T03:55:13.500Z,99.90
2018-09-26T03:57:40.821Z,99.90
2018-09-26T04:00:08.110Z,99.90
2018-09-26T04:02:35.428Z,99.90
2018-09-26T04:05:02.749Z,99.90
2018-09-26T04:07:29.967Z,99.90
2018-09-26T04:10:02.894Z,99.90
2018-09-26T04:12:30.169Z,99.90
2018-09-26T04:14:57.356Z,99.90
2018-09-26T04:17:24.604Z,99.90
2018-09-26T04:19:51.841Z,99.90
2018-09-26T04:22:19.088Z,99.90
2018-09-26T04:24:46.350Z,99.90
2018-09-26T04:27:13.713Z,99.90
2018-09-26T04:29:40.876Z,99.90
2018-09-26T04:32:08.115Z,99.90
2018-09-26T04:34:35.323Z,99.90
2018-09-26T04:37:02.681Z,99.90
2018-09-26T04:39:29.914Z,99.90
2018-09-26T04:41:57.136Z,99.90
2018-09-26T04:44:24.527Z,99.90
2018-09-26T04:46:51.750Z,99.90
2018-09-26T04:49:18.984Z,99.90
2018-09-26T04:51:46.237Z,99.90
2018-09-26T04:54:13.475Z,99.90
2018-09-26T04:56:40.704Z,99.90
2018-09-26T04:59:07.911Z,99.90
2018-09-26T05:01:35.194Z,99.90
2018-09-26T05:04:02.452Z,99.90
2018-09-26T05:06:29.695Z,99.90
2018-09-26T05:08:56.955Z,99.90
2018-09-26T05:11:24.220Z,99.90
2018-09-26T05:13:51.477Z,99.90
2018-09-26T05:16:18.747Z,99.90
2018-09-26T05:18:45.993Z,99.90
2018-09-26T05:21:13.236Z,99.90
2018-09-26T05:23:40.479Z,99.90
2018-09-26T05:26:07.709Z,99.90
2018-09-26T05:28:35.085Z,99.90
2018-09-26T05:31:02.316Z,99.90
2018-09-26T05:33:29.559Z,99.90
2018-09-26T05:35:56.795Z,99.90
2018-09-26T05:38:24.052Z,99.90
2018-09-26T05:40:51.293Z,99.90
2018-09-26T05:43:18.540Z,99.90
2018-09-26T05:45:45.804Z,99.90
2018-09-26T05:48:13.052Z,99.90
2018-09-26T05:50:40.535Z,99.90
2018-09-26T05:53:07.807Z,99.90
2018-09-26T05:55:35.068Z,99.90
2018-09-26T05:58:02.395Z,99.90
2018-09-26T06:00:29.663Z,99.90
2018-09-26T06:02:56.896Z,99.90
2018-09-26T06:05:24.131Z,99.90
2018-09-26T06:07:51.401Z,99.90
2018-09-26T06:10:18.644Z,99.90
2018-09-26T06:12:45.891Z,99.90
2018-09-26T06:15:13.143Z,99.90
2018-09-26T06:17:40.365Z,99.90
2018-09-26T06:20:07.688Z,99.90
2018-09-26T06:22:34.952Z,99.90
2018-09-26T06:25:02.231Z,99.90
2018-09-26T06:27:29.631Z,99.90
2018-09-26T06:29:56.907Z,99.90
2018-09-26T06:32:24.261Z,99.90
2018-09-26T06:34:52.239Z,99.90
2018-09-26T06:37:19.877Z,99.90
2018-09-26T06:39:47.091Z,99.90
2018-09-26T06:42:14.923Z,99.90
2018-09-26T06:44:42.153Z,99.90
2018-09-26T06:47:09.419Z,99.90
2018-09-26T06:49:36.688Z,99.90
2018-09-26T06:52:03.968Z,99.90
2018-09-26T06:54:31.231Z,99.90
2018-09-26T06:56:58.565Z,99.90
2018-09-26T06:59:25.874Z,99.90
2018-09-26T07:01:54.999Z,99.90
2018-09-26T07:04:22.380Z,99.90
2018-09-26T07:06:49.699Z,99.90
2018-09-26T07:09:16.939Z,99.90
2018-09-26T07:11:44.209Z,99.90
2018-09-26T07:14:11.528Z,99.90
2018-09-26T07:16:38.744Z,99.90
2018-09-26T07:19:06.020Z,99.90
2018-09-26T07:21:33.271Z,99.90
2018-09-26T07:24:00.579Z,99.90
2018-09-26T07:26:27.823Z,99.60
2018-09-26T07:28:55.082Z,93.40
2018-09-26T07:31:22.360Z,84.10
2018-09-26T07:33:49.636Z,70.80
2018-09-26T07:36:16.957Z,60.80
2018-09-26T07:38:44.258Z,58.10
2018-09-26T07:41:11.527Z,56.30
2018-09-26T07:43:38.862Z,56.30
2018-09-26T07:46:06.712Z,52.30
2018-09-26T07:48:33.970Z,50.80
2018-09-26T07:51:01.248Z,48.60
2018-09-26T07:53:28.550Z,49.60
2018-09-26T07:55:55.819Z,47.30
2018-09-26T07:58:23.087Z,46.20
2018-09-26T08:00:50.332Z,45.10
2018-09-26T08:03:17.664Z,43.90
2018-09-26T08:05:44.986Z,43.00
2018-09-26T08:08:12.268Z,41.20
2018-09-26T08:10:39.516Z,39.10
2018-09-26T08:13:06.808Z,39.60
2018-09-26T08:15:34.096Z,35.70
2018-09-26T08:18:01.402Z,35.50
2018-09-26T08:20:28.640Z,34.90
2018-09-26T08:22:55.905Z,33.60
2018-09-26T08:25:23.140Z,34.10
2018-09-26T08:27:50.399Z,37.00
2018-09-26T08:30:17.663Z,32.80
2018-09-26T08:32:44.946Z,32.00
2018-09-26T08:35:12.280Z,31.90
2018-09-26T08:37:39.697Z,32.80
2018-09-26T08:40:06.980Z,31.20
2018-09-26T08:42:34.252Z,29.80
2018-09-26T08:45:01.598Z,29.50
2018-09-26T08:47:28.844Z,30.80
2018-09-26T08:49:56.123Z,30.10
2018-09-26T08:52:24.325Z,29.40
2018-09-26T08:54:51.576Z,29.40
2018-09-26T08:57:18.836Z,28.40
2018-09-26T08:59:46.182Z,28.20
2018-09-26T09:02:13.399Z,28.60
2018-09-26T09:04:40.666Z,29.40
2018-09-26T09:07:07.928Z,29.80
2018-09-26T09:09:35.165Z,29.90
2018-09-26T09:12:02.407Z,28.70
2018-09-26T09:14:29.736Z,27.90
2018-09-26T09:16:56.915Z,28.30
2018-09-26T09:19:24.172Z,27.60
2018-09-26T09:21:51.504Z,28.40
2018-09-26T09:24:18.739Z,28.10
2018-09-26T09:26:45.984Z,28.20
2018-09-26T09:29:13.275Z,27.40
2018-09-26T09:31:40.523Z,28.20
2018-09-26T09:34:07.775Z,26.70
2018-09-26T09:36:35.047Z,26.40
2018-09-26T09:39:02.400Z,26.80
2018-09-26T09:41:29.695Z,25.80
2018-09-26T09:43:56.963Z,26.20
2018-09-26T09:46:24.202Z,26.30
2018-09-26T09:48:51.500Z,26.50
2018-09-26T09:51:18.771Z,26.00
2018-09-26T09:53:46.012Z,26.50
2018-09-26T09:56:13.264Z,25.60
2018-09-26T09:58:40.519Z,25.60
2018-09-26T10:01:13.424Z,25.30
2018-09-26T10:03:40.844Z,25.10
2018-09-26T10:06:08.092Z,25.00
2018-09-26T10:08:35.323Z,25.30
2018-09-26T10:15:58.944Z,54.50
2018-09-26T10:20:53.408Z,43.50
2018-09-26T10:23:20.636Z,23.80
2018-09-26T10:25:47.844Z,23.70
2018-09-26T10:28:15.116Z,26.70
2018-09-26T10:30:42.368Z,22.80
2018-09-26T10:33:09.613Z,23.70
2018-09-26T10:35:36.886Z,43.70
2018-09-26T10:38:04.128Z,22.80
2018-09-26T10:40:31.372Z,23.40
2018-09-26T10:42:58.752Z,23.20
2018-09-26T10:45:25.992Z,22.00
2018-09-26T10:47:53.233Z,22.50
2018-09-26T10:50:20.549Z,21.40
2018-09-26T10:52:47.732Z,22.40
2018-09-26T10:55:14.976Z,22.10
2018-09-26T10:57:42.215Z,21.40
2018-09-26T11:00:09.471Z,21.40
2018-09-26T11:02:36.834Z,21.50
2018-09-26T11:05:04.581Z,21.40
2018-09-26T11:07:31.787Z,21.20
2018-09-26T11:09:59.008Z,27.50
2018-09-26T11:12:28.584Z,30.00
2018-09-26T11:14:55.783Z,27.60
2018-09-26T11:22:17.538Z,20.70
2018-09-26T11:24:44.888Z,21.00
2018-09-26T11:27:12.091Z,21.00
2018-09-26T11:29:39.331Z,21.10
2018-09-26T11:32:06.576Z,20.90
2018-09-26T11:34:33.775Z,20.30
2018-09-26T11:39:28.301Z,19.10
2018-09-26T11:41:55.596Z,17.80
2018-09-26T11:44:23.006Z,18.50
2018-09-26T11:46:50.162Z,18.20
2018-09-26T11:49:17.368Z,18.60
2018-09-26T11:51:44.612Z,19.00
2018-09-26T11:54:11.823Z,20.00
2018-09-26T11:56:39.211Z,18.50
2018-09-26T11:59:06.535Z,18.50
2018-09-26T12:01:33.807Z,18.70
2018-09-26T12:04:01.047Z,18.20
2018-09-26T12:11:22.780Z,33.60
2018-09-26T12:18:44.545Z,42.00
2018-09-26T12:21:11.776Z,32.40
2018-09-26T12:26:07.089Z,20.30
2018-09-26T12:28:34.371Z,26.10
2018-09-26T12:31:01.611Z,19.20
2018-09-26T12:35:56.667Z,18.70
2018-09-26T12:38:23.903Z,19.60
2018-09-26T12:40:51.140Z,20.30
2018-09-26T12:43:18.365Z,21.50
2018-09-26T12:45:45.616Z,20.70
2018-09-26T12:48:12.992Z,20.90
2018-09-26T13:02:57.172Z,20.20
2018-09-26T13:05:24.412Z,20.30
2018-09-26T13:10:18.939Z,28.40
2018-09-26T13:39:47.120Z,48.80
2018-09-26T13:42:14.478Z,19.70
2018-09-26T13:44:41.672Z,27.20
2018-09-26T13:47:09.115Z,47.90
2018-09-26T13:49:36.387Z,20.80
2018-09-26T13:52:03.708Z,20.30
2018-09-26T13:54:30.950Z,20.10
2018-09-26T13:56:58.196Z,20.30
2018-09-26T13:59:25.440Z,21.20
2018-09-26T14:01:52.769Z,20.10
2018-09-26T14:04:20.033Z,21.00
2018-09-26T14:06:47.260Z,21.00
2018-09-26T14:09:14.503Z,20.80
2018-09-26T14:11:41.740Z,21.00
2018-09-26T14:14:09.057Z,20.60
2018-09-26T14:26:29.743Z,20.30
2018-09-26T14:28:57.101Z,20.60
2018-09-26T14:31:24.637Z,21.10
2018-09-26T14:33:51.999Z,22.50
2018-09-26T14:36:19.479Z,22.20
2018-09-26T14:38:46.792Z,20.60
2018-09-26T14:41:14.145Z,20.30
2018-09-26T14:43:41.643Z,20.40
2018-09-26T14:46:09.040Z,20.90
2018-09-26T14:48:36.393Z,20.40
2018-09-26T14:51:04.102Z,19.80
2018-09-26T14:53:31.436Z,19.30
2018-09-26T14:58:26.359Z,19.40
2018-09-26T15:00:53.720Z,20.10
2018-09-26T15:03:21.063Z,20.40
2018-09-26T15:05:50.752Z,20.50
2018-09-26T15:08:18.195Z,20.90
2018-09-26T15:10:45.480Z,22.40
2018-09-26T15:45:45.014Z,36.30
2018-09-26T15:48:12.461Z,39.60
2018-09-26T15:53:07.028Z,41.80
2018-09-26T15:55:34.498Z,23.90
2018-09-26T16:10:18.433Z,26.40
2018-09-26T16:12:45.659Z,24.90
2018-09-26T16:22:36.605Z,29.40
2018-09-26T16:27:31.060Z,43.20
2018-09-26T16:34:52.885Z,34.10
2018-09-26T16:39:47.361Z,35.70
2018-09-26T16:44:41.848Z,37.60
2018-09-26T16:47:09.114Z,39.50
2018-09-26T16:49:36.894Z,39.70
2018-09-26T16:56:58.739Z,43.70
2018-09-26T16:59:25.984Z,44.10
2018-09-26T17:04:20.553Z,45.80
2018-09-26T17:06:47.757Z,47.60
2018-09-26T17:09:15.019Z,65.50
2018-09-26T17:14:09.908Z,74.00
2018-09-26T17:26:29.864Z,60.30
2018-09-26T17:36:20.006Z,54.00
2018-09-26T17:41:14.575Z,57.80
2018-09-26T17:43:42.100Z,58.50
2018-09-26T17:46:09.476Z,61.40
2018-09-26T17:48:36.736Z,64.60
2018-09-26T17:51:04.196Z,66.40
2018-09-26T17:53:31.469Z,67.00
2018-09-26T17:55:58.840Z,64.90
2018-09-26T17:58:26.300Z,69.50
2018-09-26T18:08:15.469Z,80.50
2018-09-26T18:10:42.775Z,81.20
2018-09-26T18:13:10.139Z,83.00
2018-09-26T18:15:37.540Z,87.20
2018-09-26T18:18:05.030Z,91.50
2018-09-26T18:20:32.375Z,91.30
2018-09-26T18:22:59.620Z,92.10
2018-09-26T18:25:26.927Z,93.00
2018-09-26T18:27:58.713Z,99.90
2018-09-26T18:30:26.111Z,99.90
2018-09-26T18:32:55.499Z,99.90
2018-09-26T18:35:22.838Z,99.90
2018-09-26T18:37:50.120Z,96.20
2018-09-26T18:45:12.133Z,82.90
2018-09-26T18:47:39.365Z,84.10
2018-09-26T18:50:06.781Z,88.60
2018-09-26T18:52:34.011Z,90.30
2018-09-26T18:55:01.341Z,93.90
2018-09-26T18:57:28.603Z,91.00
2018-09-26T18:59:55.933Z,91.30
2018-09-26T19:02:23.440Z,91.80
2018-09-26T19:04:50.984Z,93.10
2018-09-26T19:07:18.077Z,96.20
2018-09-26T19:09:45.319Z,98.60
2018-09-26T19:12:12.626Z,99.90
2018-09-26T19:14:39.935Z,99.90
2018-09-26T19:17:07.218Z,99.90
2018-09-26T19:19:34.553Z,99.90
2018-09-26T19:22:01.845Z,99.90
2018-09-26T19:24:29.164Z,99.90
2018-09-26T19:26:56.478Z,99.90
2018-09-26T19:29:23.715Z,99.90
2018-09-26T19:31:50.975Z,99.90
2018-09-26T19:34:18.266Z,99.90
2018-09-26T19:36:45.532Z,99.90
2018-09-26T19:39:12.865Z,99.90
2018-09-26T19:41:40.091Z,99.90
2018-09-26T19:44:07.411Z,99.90
2018-09-26T19:46:34.685Z,99.90
2018-09-26T19:49:02.093Z,99.90
2018-09-26T19:51:30.291Z,99.90
2018-09-26T19:53:57.590Z,99.90
2018-09-26T19:56:25.043Z,99.90
2018-09-26T19:58:52.220Z,99.90
2018-09-26T20:01:19.498Z,99.90
2018-09-26T20:03:46.803Z,99.90
2018-09-26T20:06:14.070Z,99.90
2018-09-26T20:08:41.339Z,99.90
2018-09-26T20:11:08.620Z,99.90
2018-09-26T20:13:36.027Z,99.90
2018-09-26T20:16:03.326Z,99.90
2018-09-26T20:18:30.569Z,99.90
2018-09-26T20:20:57.857Z,99.90
2018-09-26T20:23:25.210Z,99.90
2018-09-26T20:25:52.438Z,99.90
2018-09-26T20:28:19.716Z,99.90
2018-09-26T20:30:47.015Z,99.90
2018-09-26T20:33:14.315Z,99.90
2018-09-26T20:35:41.993Z,99.90
2018-09-26T20:38:09.344Z,99.90
2018-09-26T20:40:36.634Z,99.90
2018-09-26T20:43:03.953Z,99.90
2018-09-26T20:45:31.276Z,99.90
2018-09-26T20:47:58.579Z,99.90
2018-09-26T20:50:25.985Z,99.90
2018-09-26T20:52:53.286Z,99.90
2018-09-26T20:55:20.737Z,99.90
2018-09-26T20:57:48.177Z,99.90
2018-09-26T21:00:15.576Z,99.90
2018-09-26T21:02:43.004Z,99.90
2018-09-26T21:05:10.798Z,99.90
2018-09-26T21:07:38.160Z,99.90
2018-09-26T21:10:05.532Z,99.90
2018-09-26T21:12:32.847Z,99.90
2018-09-26T21:15:00.235Z,99.90
2018-09-26T21:17:27.590Z,99.90
2018-09-26T21:19:55.021Z,99.90
2018-09-26T21:22:22.307Z,99.90
2018-09-26T21:24:49.613Z,99.90
2018-09-26T21:27:16.968Z,99.90
2018-09-26T21:29:44.305Z,99.90
2018-09-26T21:32:11.679Z,99.90
2018-09-26T21:34:39.066Z,99.90
2018-09-26T21:37:06.429Z,99.90
2018-09-26T21:39:33.721Z,99.90
2018-09-26T21:42:01.020Z,99.90
2018-09-26T21:44:28.302Z,99.90
2018-09-26T21:46:55.612Z,99.90
2018-09-26T21:49:22.961Z,99.90
2018-09-26T21:51:51.114Z,99.90
2018-09-26T21:54:18.469Z,99.90
2018-09-26T21:56:45.813Z,99.90
2018-09-26T21:59:13.150Z,99.90
2018-09-26T22:01:40.510Z,99.90
2018-09-26T22:04:07.804Z,99.90
2018-09-26T22:06:35.186Z,99.90
2018-09-26T22:09:02.660Z,99.90
2018-09-26T22:11:29.976Z,99.90
2018-09-26T22:13:57.283Z,99.90
2018-09-26T22:16:24.604Z,99.90
2018-09-26T22:18:52.117Z,99.90
2018-09-26T22:21:19.441Z,99.90
2018-09-26T22:23:46.797Z,99.90
2018-09-26T22:26:14.128Z,99.90
2018-09-26T22:28:41.504Z,99.90
2018-09-26T22:31:08.916Z,99.90
2018-09-26T22:33:36.302Z,99.90
2018-09-26T22:36:03.616Z,99.90
2018-09-26T22:38:30.905Z,99.90
2018-09-26T22:40:58.130Z,99.90
2018-09-26T22:43:25.353Z,99.90
2018-09-26T22:45:52.580Z,99.90
2018-09-26T22:48:19.767Z,99.90
2018-09-26T22:50:46.967Z,99.90
2018-09-26T22:53:14.175Z,99.90
2018-09-26T22:55:41.393Z,99.90
2018-09-26T22:58:08.620Z,99.90
2018-09-26T23:00:35.820Z,99.90
2018-09-26T23:03:03.055Z,99.90
2018-09-26T23:05:30.728Z,99.90
2018-09-26T23:07:57.947Z,99.90
2018-09-26T23:10:25.183Z,99.90
2018-09-26T23:12:52.407Z,99.90
2018-09-26T23:15:19.650Z,99.90
2018-09-26T23:17:46.885Z,99.90
2018-09-26T23:20:14.167Z,99.90
2018-09-26T23:22:41.446Z,99.90
2018-09-26T23:25:08.723Z,99.90
2018-09-26T23:27:36.001Z,99.90
2018-09-26T23:30:03.285Z,99.90
2018-09-26T23:32:30.561Z,99.90
2018-09-26T23:34:57.809Z,99.90
2018-09-26T23:37:25.056Z,99.90
2018-09-26T23:39:52.311Z,99.90
2018-09-26T23:42:19.559Z,99.90
2018-09-26T23:44:46.799Z,99.90
2018-09-26T23:47:14.028Z,99.90
2018-09-26T23:49:41.304Z,99.90
2018-09-26T23:52:08.580Z,99.90
2018-09-26T23:54:35.903Z,99.90
2018-09-26T23:57:03.193Z,99.90
2018-09-26T23:59:30.463Z,99.90
